Time;durP1;ratioP1;P1;durP2;ratioP2;P2;SDS_P1;SDS_P2;PMS_P1;PMS_P2;Temp;Humidity;BMP_temperature;BMP_pressure;BME280_temperature;BME280_humidity;BME280_pressure;Samples;Min_cycle;Max_cycle;Signal;HPM_P1;HPM_P2
2023/01/07 00:01:36;;;;;;;2.33;1.50;;;13.20;85.20;;;;;;5098742;28;20039;-68
2023/01/07 00:04:04;;;;;;;2.83;2.05;;;13.20;85.20;;;;;;5090948;28;20149;-68
2023/01/07 00:06:35;;;;;;;1.63;1.52;;;13.20;85.30;;;;;;5090981;28;20028;-68
2023/01/07 00:09:03;;;;;;;2.13;1.88;;;13.10;85.30;;;;;;5099886;28;20020;-68
2023/01/07 00:11:32;;;;;;;2.33;1.58;;;13.10;85.60;;;;;;5110068;28;20076;-68
2023/01/07 00:13:59;;;;;;;3.40;2.15;;;13.10;85.80;;;;;;5105397;28;20070;-60
2023/01/07 00:16:27;;;;;;;2.30;1.75;;;13.00;85.80;;;;;;5099234;28;20368;-60
2023/01/07 00:18:54;;;;;;;3.08;1.80;;;13.00;85.90;;;;;;5090738;28;20481;-61
2023/01/07 00:21:22;;;;;;;2.50;1.67;;;13.00;85.90;;;;;;5097400;28;20527;-61
2023/01/07 00:23:48;;;;;;;2.25;1.75;;;13.00;85.80;;;;;;5090295;28;20028;-61
2023/01/07 00:26:17;;;;;;;2.28;1.55;;;13.00;85.80;;;;;;5107860;28;20020;-59
2023/01/07 00:28:46;;;;;;;2.22;1.90;;;13.00;85.70;;;;;;5109260;28;20475;-68
2023/01/07 00:31:14;;;;;;;2.00;1.55;;;13.00;85.90;;;;;;5105451;28;20463;-67
2023/01/07 00:33:50;;;;;;;1.88;1.55;;;13.00;85.90;;;;;;5075040;28;20069;-68
2023/01/07 00:36:17;;;;;;;2.83;1.83;;;13.00;85.80;;;;;;5081464;28;20671;-59
2023/01/07 00:38:42;;;;;;;2.50;1.83;;;13.00;85.80;;;;;;5102413;28;20106;-68
2023/01/07 00:41:09;;;;;;;3.03;1.77;;;13.00;85.80;;;;;;5097726;28;20154;-60
2023/01/07 00:43:35;;;;;;;2.75;1.63;;;13.10;85.80;;;;;;5090163;28;20068;-60
2023/01/07 00:46:01;;;;;;;3.33;2.25;;;13.00;85.60;;;;;;5097262;28;20368;-68
2023/01/07 00:48:27;;;;;;;2.38;2.00;;;13.00;85.60;;;;;;5106215;28;20039;-59
2023/01/07 00:50:53;;;;;;;5.45;2.03;;;13.00;85.60;;;;;;5081749;28;20431;-60
2023/01/07 00:53:19;;;;;;;3.53;1.95;;;13.00;85.70;;;;;;5094383;28;20028;-60
2023/01/07 00:55:46;;;;;;;1.77;1.30;;;13.00;85.70;;;;;;5092084;28;20398;-59
2023/01/07 00:58:20;;;;;;;3.90;1.75;;;13.00;85.70;;;;;;5093484;28;20081;-60
2023/01/07 01:00:46;;;;;;;2.67;1.42;;;13.00;85.70;;;;;;5095378;28;20027;-68
2023/01/07 01:03:12;;;;;;;2.33;1.50;;;12.90;85.80;;;;;;5102435;28;20093;-60
2023/01/07 01:05:38;;;;;;;2.72;1.98;;;12.90;85.70;;;;;;5076021;28;20031;-68
2023/01/07 01:08:04;;;;;;;1.90;1.63;;;12.90;85.70;;;;;;5098298;28;20020;-60
2023/01/07 01:10:30;;;;;;;1.48;1.38;;;12.90;85.60;;;;;;5089875;28;20085;-69
2023/01/07 01:12:56;;;;;;;1.65;1.42;;;12.90;85.50;;;;;;5102674;28;20027;-68
2023/01/07 01:15:21;;;;;;;2.25;1.90;;;13.00;85.50;;;;;;5087971;28;20036;-68
2023/01/07 01:17:50;;;;;;;2.28;1.80;;;13.00;85.40;;;;;;5092878;28;20099;-69
2023/01/07 01:20:15;;;;;;;2.33;1.70;;;13.00;85.30;;;;;;5072235;28;20028;-69
2023/01/07 01:22:42;;;;;;;2.05;1.83;;;13.00;85.30;;;;;;5094327;28;20583;-68
2023/01/07 01:25:08;;;;;;;3.45;1.88;;;12.90;85.30;;;;;;5073379;28;20383;-69
2023/01/07 01:27:34;;;;;;;2.10;1.55;;;12.90;85.30;;;;;;5085646;28;20032;-60
2023/01/07 01:30:01;;;;;;;3.25;1.55;;;12.90;85.30;;;;;;5089223;28;20028;-69
2023/01/07 01:32:26;;;;;;;3.65;2.08;;;12.90;85.40;;;;;;5073443;28;20478;-68
2023/01/07 01:34:52;;;;;;;3.42;2.00;;;12.80;85.20;;;;;;5090732;28;20049;-68
2023/01/07 01:37:18;;;;;;;2.55;2.28;;;12.80;85.30;;;;;;5093637;28;20042;-60
2023/01/07 01:39:43;;;;;;;1.90;1.50;;;12.80;85.40;;;;;;5062958;28;20069;-68
2023/01/07 01:42:15;;;;;;;1.77;1.42;;;12.80;85.40;;;;;;5097786;28;20119;-60
2023/01/07 01:44:56;;;;;;;2.53;1.92;;;12.80;85.30;;;;;;5076950;28;20024;-61
2023/01/07 01:47:22;;;;;;;2.72;2.05;;;12.80;85.20;;;;;;5102408;28;20012;-60
2023/01/07 01:49:54;;;;;;;2.78;1.98;;;12.80;85.30;;;;;;5091216;28;20028;-61
2023/01/07 01:52:26;;;;;;;3.03;1.45;;;12.80;85.30;;;;;;5092810;28;20126;-60
2023/01/07 01:54:56;;;;;;;3.22;2.10;;;12.80;85.20;;;;;;5090560;28;20111;-60
2023/01/07 01:57:24;;;;;;;3.85;2.08;;;12.80;85.30;;;;;;5090693;28;20039;-60
2023/01/07 01:59:51;;;;;;;2.47;1.50;;;12.80;85.40;;;;;;5093893;28;20024;-61
2023/01/07 02:02:24;;;;;;;2.05;1.20;;;12.80;85.30;;;;;;5090532;28;20031;-61
2023/01/07 02:04:51;;;;;;;2.83;1.50;;;12.80;85.10;;;;;;5073810;28;20453;-60
2023/01/07 02:07:17;;;;;;;4.88;2.30;;;12.80;85.20;;;;;;5074346;28;20082;-60
2023/01/07 02:09:44;;;;;;;3.10;2.25;;;12.80;85.10;;;;;;5076775;28;20368;-68
2023/01/07 02:12:38;;;;;;;3.67;1.58;;;12.80;85.10;;;;;;5070548;28;20028;-69
2023/01/07 02:15:17;;;;;;;3.50;1.73;;;12.80;85.10;;;;;;5072727;28;20059;-69
2023/01/07 02:18:06;;;;;;;6.07;1.60;;;12.80;85.10;;;;;;5068716;28;20032;-61
2023/01/07 02:20:37;;;;;;;2.38;1.35;;;12.80;84.90;;;;;;5078440;28;20433;-62
2023/01/07 02:23:38;;;;;;;2.13;1.42;;;12.80;84.90;;;;;;5086419;28;20035;-60
2023/01/07 02:26:07;;;;;;;3.03;1.85;;;12.90;84.70;;;;;;5072395;28;20023;-60
2023/01/07 02:28:51;;;;;;;5.88;1.85;;;12.80;84.80;;;;;;5072604;28;20246;-68
2023/01/07 02:31:45;;;;;;;2.17;1.40;;;12.80;84.70;;;;;;5069554;28;20122;-59
2023/01/07 02:34:28;;;;;;;2.85;1.75;;;12.80;84.70;;;;;;5066013;28;20028;-60
2023/01/07 02:37:13;;;;;;;3.55;1.45;;;12.80;84.80;;;;;;5072941;28;20056;-60
2023/01/07 02:39:48;;;;;;;1.65;1.50;;;12.80;84.80;;;;;;5065600;28;20024;-60
2023/01/07 02:42:25;;;;;;;1.73;1.63;;;12.80;84.80;;;;;;5071890;28;20033;-69
2023/01/07 02:45:03;;;;;;;1.40;1.20;;;12.80;84.80;;;;;;5063514;28;20420;-60
2023/01/07 02:47:58;;;;;;;3.28;1.80;;;12.80;84.80;;;;;;5075597;28;20535;-60
2023/01/07 02:50:24;;;;;;;2.67;1.80;;;12.80;84.60;;;;;;5072762;28;20568;-68
2023/01/07 02:52:50;;;;;;;2.33;1.15;;;12.80;84.70;;;;;;5070139;28;20025;-68
2023/01/07 02:55:21;;;;;;;2.50;1.60;;;12.70;84.60;;;;;;5070355;28;20112;-68
2023/01/07 02:57:53;;;;;;;1.80;1.40;;;12.80;84.60;;;;;;5071150;28;20036;-68
2023/01/07 03:00:38;;;;;;;3.10;1.30;;;12.80;84.40;;;;;;5072809;28;20024;-68
2023/01/07 03:03:21;;;;;;;4.97;1.65;;;12.80;84.40;;;;;;5077312;28;20399;-60
2023/01/07 03:06:11;;;;;;;1.85;1.20;;;12.70;84.40;;;;;;5093072;28;20945;-60
2023/01/07 03:09:07;;;;;;;1.10;1.00;;;12.70;84.40;;;;;;5092843;28;20378;-60
2023/01/07 03:11:40;;;;;;;1.67;1.48;;;12.70;84.50;;;;;;5107338;28;20080;-60
2023/01/07 03:14:10;;;;;;;1.38;1.15;;;12.70;85.10;;;;;;5095014;28;20078;-60
2023/01/07 03:16:40;;;;;;;2.45;1.73;;;12.70;84.50;;;;;;5108841;28;20445;-60
2023/01/07 03:19:19;;;;;;;1.40;1.17;;;12.70;84.60;;;;;;5090615;28;20056;-61
2023/01/07 03:21:47;;;;;;;3.13;1.35;;;12.70;84.40;;;;;;5112821;27;20023;-68
2023/01/07 03:24:15;;;;;;;2.53;1.52;;;12.80;84.50;;;;;;5100839;28;20170;-69
2023/01/07 03:26:49;;;;;;;2.97;1.48;;;12.70;84.40;;;;;;5089587;28;20110;-68
2023/01/07 03:29:16;;;;;;;1.95;1.20;;;12.70;84.40;;;;;;5099553;28;20059;-68
2023/01/07 03:32:10;;;;;;;1.70;1.05;;;12.70;84.40;;;;;;5091786;28;20051;-68
2023/01/07 03:34:37;;;;;;;1.98;1.27;;;12.70;84.40;;;;;;5080337;28;20028;-68
2023/01/07 03:37:13;;;;;;;2.50;1.10;;;12.70;84.40;;;;;;5091719;28;20020;-68
2023/01/07 03:39:41;;;;;;;2.10;1.33;;;12.70;84.40;;;;;;5098081;28;20017;-69
2023/01/07 03:44:53;;;;;;;1.30;1.13;;;12.70;84.30;;;;;;5091443;28;20035;-69
2023/01/07 03:47:19;;;;;;;2.40;1.50;;;12.70;84.40;;;;;;5091561;28;20054;-61
2023/01/07 03:49:45;;;;;;;2.50;1.23;;;12.70;84.30;;;;;;5075648;28;20059;-61
2023/01/07 03:52:11;;;;;;;3.15;1.75;;;12.70;84.10;;;;;;5074868;28;20036;-69
2023/01/07 03:54:36;;;;;;;1.58;1.25;;;12.70;84.20;;;;;;5072293;28;20031;-69
2023/01/07 03:57:02;;;;;;;3.80;1.70;;;12.70;84.20;;;;;;5107110;28;20499;-68
2023/01/07 03:59:28;;;;;;;2.25;1.55;;;12.70;84.20;;;;;;5091594;28;20115;-68
2023/01/07 04:01:54;;;;;;;1.33;1.23;;;12.70;84.10;;;;;;5089622;28;20084;-68
2023/01/07 04:04:20;;;;;;;1.65;1.42;;;12.80;84.20;;;;;;5091234;28;20097;-69
2023/01/07 04:06:46;;;;;;;2.97;1.20;;;12.80;84.10;;;;;;5097457;28;20030;-69
2023/01/07 04:09:17;;;;;;;1.67;1.10;;;12.80;84.00;;;;;;5073636;28;20026;-60
2023/01/07 04:11:43;;;;;;;3.30;1.73;;;12.80;84.00;;;;;;5106459;28;20031;-60
2023/01/07 04:14:09;;;;;;;4.07;1.33;;;12.70;84.00;;;;;;5077081;28;20494;-60
2023/01/07 04:16:35;;;;;;;2.97;1.55;;;12.70;84.00;;;;;;5100534;28;20035;-60
2023/01/07 04:19:02;;;;;;;1.55;1.20;;;12.70;84.00;;;;;;5099180;28;20036;-60
2023/01/07 04:21:28;;;;;;;2.72;1.65;;;12.70;84.10;;;;;;5104262;28;20028;-60
2023/01/07 04:23:53;;;;;;;1.85;1.35;;;12.70;84.00;;;;;;5102648;28;20497;-61
2023/01/07 04:26:19;;;;;;;1.52;0.93;;;12.60;84.10;;;;;;5106618;28;20525;-60
2023/01/07 04:28:44;;;;;;;1.23;1.00;;;12.60;84.10;;;;;;5101432;28;20659;-60
2023/01/07 04:31:10;;;;;;;1.70;1.00;;;12.60;84.10;;;;;;5106222;28;20479;-68
2023/01/07 04:33:36;;;;;;;3.58;1.73;;;12.60;84.10;;;;;;5103402;28;20594;-69
2023/01/07 04:36:02;;;;;;;1.80;1.00;;;12.50;84.10;;;;;;5099210;28;20159;-69
2023/01/07 04:38:28;;;;;;;3.13;1.48;;;12.50;84.20;;;;;;5100888;28;20032;-60
2023/01/07 04:40:53;;;;;;;1.58;1.00;;;12.60;84.10;;;;;;5107297;28;20026;-61
2023/01/07 04:43:19;;;;;;;1.42;0.82;;;12.60;84.10;;;;;;5106972;28;20043;-61
2023/01/07 04:45:45;;;;;;;2.17;1.15;;;12.60;84.00;;;;;;5107133;28;20023;-69
2023/01/07 04:48:10;;;;;;;1.17;1.08;;;12.60;84.00;;;;;;5103869;28;20060;-68
2023/01/07 04:50:36;;;;;;;1.90;1.35;;;12.60;83.90;;;;;;5091229;28;20023;-60
2023/01/07 04:53:01;;;;;;;2.03;0.90;;;12.50;84.00;;;;;;5104201;28;20034;-69
2023/01/07 04:55:27;;;;;;;0.77;0.75;;;12.50;84.00;;;;;;5109974;28;20394;-60
2023/01/07 04:57:53;;;;;;;1.27;1.15;;;12.40;84.00;;;;;;5098321;28;20024;-69
2023/01/07 05:00:19;;;;;;;2.13;1.00;;;12.40;84.10;;;;;;5078969;28;20032;-61
2023/01/07 05:02:44;;;;;;;1.30;0.82;;;12.40;84.10;;;;;;5104361;28;20403;-61
2023/01/07 05:05:10;;;;;;;5.25;1.20;;;12.40;84.10;;;;;;5094211;28;20027;-61
2023/01/07 05:07:36;;;;;;;1.38;1.17;;;12.40;84.20;;;;;;5080873;28;20024;-61
2023/01/07 05:10:02;;;;;;;1.23;1.10;;;12.30;84.20;;;;;;5099530;28;20476;-69
2023/01/07 05:12:27;;;;;;;2.78;1.33;;;12.30;84.30;;;;;;5072151;28;20036;-61
2023/01/07 05:14:53;;;;;;;1.23;1.13;;;12.30;84.20;;;;;;5075634;28;20115;-68
2023/01/07 05:17:19;;;;;;;1.75;1.20;;;12.30;84.10;;;;;;5057136;28;20028;-69
2023/01/07 05:19:44;;;;;;;1.60;1.13;;;12.40;84.10;;;;;;5092250;28;20031;-68
2023/01/07 05:22:10;;;;;;;2.88;1.52;;;12.40;84.10;;;;;;5087794;28;20111;-68
2023/01/07 05:24:36;;;;;;;2.00;1.30;;;12.40;84.00;;;;;;5090247;28;20040;-70
2023/01/07 05:27:01;;;;;;;1.05;0.60;;;12.40;84.00;;;;;;5079591;28;20031;-68
2023/01/07 05:29:27;;;;;;;1.23;0.90;;;12.40;84.00;;;;;;5089784;28;20531;-60
2023/01/07 05:31:53;;;;;;;1.88;1.10;;;12.40;84.00;;;;;;5091364;28;20165;-61
2023/01/07 05:34:18;;;;;;;1.55;1.10;;;12.40;84.00;;;;;;5072392;28;20024;-60
2023/01/07 05:36:44;;;;;;;2.03;1.38;;;12.30;83.80;;;;;;5091441;28;20031;-60
2023/01/07 05:39:10;;;;;;;2.92;1.08;;;12.40;84.00;;;;;;5092783;28;20040;-61
2023/01/07 05:41:35;;;;;;;1.23;1.00;;;12.30;83.90;;;;;;5091145;28;20043;-60
2023/01/07 05:44:01;;;;;;;2.03;1.42;;;12.40;83.90;;;;;;5092043;28;20418;-60
2023/01/07 05:46:27;;;;;;;1.10;1.00;;;12.40;83.70;;;;;;5091417;28;20069;-60
2023/01/07 05:48:53;;;;;;;1.08;0.73;;;12.40;83.70;;;;;;5091083;28;20032;-68
2023/01/07 05:51:19;;;;;;;1.10;0.80;;;12.40;83.70;;;;;;5088280;28;20396;-68
2023/01/07 05:53:44;;;;;;;1.77;1.27;;;12.40;83.70;;;;;;5097397;28;20052;-69
2023/01/07 05:56:10;;;;;;;5.72;0.98;;;12.50;83.60;;;;;;5091093;28;20509;-61
2023/01/07 05:58:36;;;;;;;1.33;1.10;;;12.50;83.60;;;;;;5089658;28;20375;-61
2023/01/07 06:01:02;;;;;;;1.38;0.90;;;12.50;83.60;;;;;;5088293;28;20032;-60
2023/01/07 06:03:28;;;;;;;1.65;1.35;;;12.50;83.50;;;;;;5088416;28;20032;-68
2023/01/07 06:05:53;;;;;;;2.00;1.30;;;12.50;83.40;;;;;;5072810;28;20439;-68
2023/01/07 06:08:19;;;;;;;1.10;0.95;;;12.60;83.50;;;;;;5092862;28;20031;-68
2023/01/07 06:10:45;;;;;;;1.55;1.13;;;12.50;83.40;;;;;;5096575;28;20032;-69
2023/01/07 06:13:10;;;;;;;1.27;0.98;;;12.50;83.40;;;;;;5098745;28;20593;-69
2023/01/07 06:15:36;;;;;;;1.90;1.38;;;12.50;83.40;;;;;;5077758;28;20101;-69
2023/01/07 06:18:02;;;;;;;2.85;1.23;;;12.50;83.40;;;;;;5089184;28;20032;-69
2023/01/07 06:20:33;;;;;;;2.05;1.23;;;12.50;83.40;;;;;;5091891;28;20043;-69
2023/01/07 06:22:59;;;;;;;1.55;1.15;;;12.50;83.40;;;;;;5082757;28;20360;-68
2023/01/07 06:25:25;;;;;;;1.60;1.05;;;12.50;83.40;;;;;;5095662;28;20056;-68
2023/01/07 06:27:51;;;;;;;1.83;1.63;;;12.50;83.40;;;;;;5086017;28;20063;-60
2023/01/07 06:30:16;;;;;;;2.35;1.23;;;12.50;83.40;;;;;;5100153;28;20486;-68
2023/01/07 06:32:43;;;;;;;0.85;0.75;;;12.50;83.30;;;;;;5100641;28;20038;-69
2023/01/07 06:35:10;;;;;;;1.05;0.80;;;12.50;83.30;;;;;;5101024;28;20071;-69
2023/01/07 06:37:36;;;;;;;1.25;0.93;;;12.50;83.80;;;;;;5099754;28;20072;-60
2023/01/07 06:40:02;;;;;;;1.30;1.17;;;12.40;83.10;;;;;;5101287;28;20190;-60
2023/01/07 06:42:28;;;;;;;0.93;0.75;;;12.40;83.10;;;;;;5089407;28;20047;-61
2023/01/07 06:44:54;;;;;;;1.55;0.85;;;12.40;83.10;;;;;;5089814;28;20407;-59
2023/01/07 06:47:19;;;;;;;2.15;1.13;;;12.40;83.00;;;;;;5073898;28;20052;-67
2023/01/07 06:49:45;;;;;;;0.70;0.68;;;12.40;82.80;;;;;;5093388;28;20089;-60
2023/01/07 06:52:11;;;;;;;2.00;0.80;;;12.40;82.70;;;;;;5092869;28;20039;-60
2023/01/07 06:54:36;;;;;;;0.80;0.77;;;12.40;82.40;;;;;;5093511;28;20040;-60
2023/01/07 06:57:02;;;;;;;1.15;0.90;;;12.40;82.40;;;;;;5092383;28;20060;-68
2023/01/07 06:59:28;;;;;;;0.60;0.47;;;12.40;82.30;;;;;;5101719;28;20039;-68
2023/01/07 07:01:54;;;;;;;1.60;0.90;;;12.50;82.00;;;;;;5075821;28;20024;-68
2023/01/07 07:04:19;;;;;;;1.27;0.85;;;12.50;81.90;;;;;;5089443;28;20102;-69
2023/01/07 07:06:45;;;;;;;3.47;0.70;;;12.50;81.80;;;;;;5074273;28;20035;-68
2023/01/07 07:09:11;;;;;;;1.27;0.82;;;12.50;81.80;;;;;;5090572;28;20028;-68
2023/01/07 07:11:36;;;;;;;1.00;0.98;;;12.50;81.60;;;;;;5099668;28;20382;-60
2023/01/07 07:14:03;;;;;;;0.60;0.60;;;12.50;81.50;;;;;;5077616;28;20158;-68
2023/01/07 07:16:28;;;;;;;0.88;0.75;;;12.50;81.30;;;;;;5075609;28;20554;-68
2023/01/07 07:18:54;;;;;;;1.25;1.15;;;12.50;81.00;;;;;;5096405;28;20038;-60
2023/01/07 07:21:20;;;;;;;1.02;0.93;;;12.50;81.00;;;;;;5072417;28;20111;-60
2023/01/07 07:23:46;;;;;;;1.33;1.02;;;12.50;80.60;;;;;;5091316;28;20032;-60
2023/01/07 07:26:12;;;;;;;0.57;0.57;;;12.50;80.60;;;;;;5086005;28;20508;-59
2023/01/07 07:28:38;;;;;;;0.77;0.63;;;12.50;80.40;;;;;;5085120;28;20031;-68
2023/01/07 07:31:04;;;;;;;0.75;0.60;;;12.50;80.40;;;;;;5102669;28;20076;-69
2023/01/07 07:33:29;;;;;;;1.90;0.93;;;12.50;80.30;;;;;;5102795;28;20464;-68
2023/01/07 07:35:55;;;;;;;1.45;0.50;;;12.50;80.30;;;;;;5099093;28;20032;-60
2023/01/07 07:38:21;;;;;;;2.60;0.90;;;12.50;80.20;;;;;;5112284;28;20065;-60
2023/01/07 07:40:47;;;;;;;0.77;0.77;;;12.50;80.00;;;;;;5104865;28;20103;-60
2023/01/07 07:43:14;;;;;;;0.90;0.68;;;12.50;80.00;;;;;;5111362;28;20031;-69
2023/01/07 07:45:40;;;;;;;0.60;0.50;;;12.50;79.70;;;;;;5101074;28;20020;-61
2023/01/07 07:48:06;;;;;;;0.55;0.50;;;12.50;79.80;;;;;;5107050;28;20115;-60
2023/01/07 07:50:32;;;;;;;1.13;0.73;;;12.50;79.50;;;;;;5077497;28;20035;-60
2023/01/07 07:52:58;;;;;;;1.17;0.80;;;12.50;79.50;;;;;;5078684;28;20105;-68
2023/01/07 07:55:24;;;;;;;0.50;0.40;;;12.50;79.50;;;;;;5096797;28;20482;-68
2023/01/07 07:57:52;;;;;;;0.40;0.35;;;12.50;79.40;;;;;;5112278;28;20039;-60
2023/01/07 08:00:18;;;;;;;2.10;0.85;;;12.60;79.20;;;;;;5074173;28;20028;-61
2023/01/07 08:02:44;;;;;;;1.05;0.75;;;12.60;79.00;;;;;;5091107;28;20036;-68
2023/01/07 08:05:11;;;;;;;1.17;0.50;;;12.60;79.00;;;;;;5091590;28;20032;-69
2023/01/07 08:07:37;;;;;;;1.63;0.60;;;12.50;78.80;;;;;;5091933;28;20039;-60
2023/01/07 08:10:04;;;;;;;0.93;0.60;;;12.60;78.50;;;;;;5091057;28;20044;-60
2023/01/07 08:12:30;;;;;;;0.95;0.63;;;12.60;79.00;;;;;;5091207;28;20028;-60
2023/01/07 08:14:56;;;;;;;0.52;0.43;;;12.60;78.30;;;;;;5073179;28;20020;-60
2023/01/07 08:17:21;;;;;;;0.63;0.57;;;12.60;78.30;;;;;;5083386;28;20058;-59
2023/01/07 08:19:47;;;;;;;0.82;0.52;;;12.60;78.10;;;;;;5103156;28;20267;-60
2023/01/07 08:22:13;;;;;;;3.10;0.68;;;12.60;78.10;;;;;;5088606;28;20044;-63
2023/01/07 08:24:39;;;;;;;0.40;0.40;;;12.60;77.80;;;;;;5091278;28;20106;-65
2023/01/07 08:27:05;;;;;;;0.57;0.45;;;12.60;77.80;;;;;;5070790;28;20439;-62
2023/01/07 08:29:30;;;;;;;0.65;0.40;;;12.60;77.70;;;;;;5067414;28;20051;-63
2023/01/07 08:31:56;;;;;;;0.57;0.55;;;12.70;77.70;;;;;;5097730;28;20528;-58
2023/01/07 08:34:22;;;;;;;0.80;0.65;;;12.60;77.60;;;;;;5075024;28;20035;-62
2023/01/07 08:36:47;;;;;;;0.43;0.43;;;12.60;77.60;;;;;;5089384;28;20024;-59
2023/01/07 08:39:13;;;;;;;1.77;0.80;;;12.70;77.60;;;;;;5106084;28;20023;-61
2023/01/07 08:41:39;;;;;;;0.50;0.45;;;12.70;77.60;;;;;;5102310;28;20019;-62
2023/01/07 08:44:05;;;;;;;0.43;0.30;;;12.70;77.70;;;;;;5095836;28;20024;-59
2023/01/07 08:46:30;;;;;;;2.92;0.85;;;12.70;77.40;;;;;;5091509;28;20049;-61
2023/01/07 08:48:56;;;;;;;0.40;0.40;;;12.70;77.40;;;;;;5089688;28;20031;-62
2023/01/07 08:51:22;;;;;;;0.93;0.50;;;12.70;77.40;;;;;;5095820;28;20020;-62
2023/01/07 08:53:47;;;;;;;0.40;0.35;;;12.70;77.30;;;;;;5097346;28;20051;-63
2023/01/07 08:56:13;;;;;;;1.35;0.40;;;12.70;77.30;;;;;;5095913;28;20125;-59
2023/01/07 08:58:39;;;;;;;1.25;0.70;;;12.70;77.90;;;;;;5108028;28;20040;-63
2023/01/07 09:01:06;;;;;;;0.77;0.60;;;12.70;77.30;;;;;;5058944;28;20024;-63
2023/01/07 09:03:32;;;;;;;0.55;0.40;;;12.70;77.20;;;;;;5094650;28;20100;-63
2023/01/07 09:05:58;;;;;;;1.27;0.70;;;12.70;77.30;;;;;;5109828;28;20030;-63
2023/01/07 09:08:24;;;;;;;0.57;0.57;;;12.80;77.40;;;;;;5100138;28;20426;-63
2023/01/07 09:10:49;;;;;;;1.45;0.57;;;12.80;77.40;;;;;;5088916;28;20135;-63
2023/01/07 09:13:15;;;;;;;0.45;0.45;;;12.80;77.20;;;;;;5072352;28;20047;-62
2023/01/07 09:15:41;;;;;;;1.00;0.70;;;12.80;77.00;;;;;;5090487;28;20520;-63
2023/01/07 09:18:06;;;;;;;0.90;0.77;;;12.80;76.90;;;;;;5089897;28;20083;-58
2023/01/07 09:20:32;;;;;;;1.13;0.70;;;12.80;76.90;;;;;;5088824;28;20402;-59
2023/01/07 09:22:58;;;;;;;0.50;0.50;;;12.90;76.90;;;;;;5071430;28;20030;-61
2023/01/07 09:25:23;;;;;;;0.63;0.50;;;12.80;76.60;;;;;;5090653;28;20115;-61
2023/01/07 09:27:49;;;;;;;1.15;0.63;;;12.80;76.60;;;;;;5072739;28;20020;-62
2023/01/07 09:30:16;;;;;;;0.95;0.47;;;12.80;76.60;;;;;;5071768;28;20031;-63
2023/01/07 09:32:42;;;;;;;0.50;0.50;;;12.90;76.80;;;;;;5071569;28;20034;-59
2023/01/07 09:35:08;;;;;;;0.75;0.73;;;12.90;76.50;;;;;;5101216;28;20039;-59
2023/01/07 09:37:34;;;;;;;0.60;0.60;;;12.90;76.10;;;;;;5068082;28;20032;-60
2023/01/07 09:40:00;;;;;;;0.70;0.60;;;12.90;76.10;;;;;;5085264;28;20376;-60
2023/01/07 09:42:51;;;;;;;0.50;0.50;;;12.90;76.00;;;;;;5069024;28;20115;-62
2023/01/07 09:45:24;;;;;;;1.13;0.50;;;12.90;75.90;;;;;;5088031;28;20058;-62
2023/01/07 09:47:54;;;;;;;0.43;0.43;;;12.90;75.80;;;;;;5087381;28;20098;-62
2023/01/07 09:50:23;;;;;;;0.68;0.68;;;12.90;75.70;;;;;;5088507;28;20382;-63
2023/01/07 09:52:52;;;;;;;0.90;0.63;;;12.90;75.80;;;;;;5086800;28;20483;-58
2023/01/07 09:55:39;;;;;;;0.43;0.43;;;12.90;75.60;;;;;;5090217;28;20055;-62
2023/01/07 09:58:12;;;;;;;0.88;0.73;;;12.90;75.40;;;;;;5088646;28;20039;-59
2023/01/07 10:00:53;;;;;;;1.05;0.60;;;12.90;75.20;;;;;;5086953;28;20024;-60
2023/01/07 10:03:29;;;;;;;1.70;0.75;;;12.90;74.90;;;;;;5088369;28;20059;-63
2023/01/07 10:06:10;;;;;;;1.08;0.50;;;13.00;74.90;;;;;;5070714;28;20024;-61
2023/01/07 10:09:12;;;;;;;0.43;0.43;;;13.10;74.70;;;;;;5088684;28;20099;-59
2023/01/07 10:12:11;;;;;;;0.57;0.38;;;13.10;74.40;;;;;;5074764;28;20020;-63
2023/01/07 10:14:43;;;;;;;0.45;0.45;;;13.20;74.30;;;;;;5085383;28;20529;-59
2023/01/07 10:17:16;;;;;;;0.50;0.50;;;13.20;74.00;;;;;;5088423;28;20134;-60
2023/01/07 10:20:14;;;;;;;0.95;0.50;;;13.20;73.80;;;;;;5090985;28;20036;-60
2023/01/07 10:22:52;;;;;;;0.82;0.55;;;13.20;73.80;;;;;;5087121;28;20031;-63
2023/01/07 10:25:24;;;;;;;0.73;0.38;;;13.20;73.60;;;;;;5083391;28;20099;-59
2023/01/07 10:27:54;;;;;;;0.30;0.30;;;13.20;73.50;;;;;;5085761;28;20459;-59
2023/01/07 10:30:28;;;;;;;0.43;0.30;;;13.30;73.60;;;;;;5086691;28;20406;-59
2023/01/07 10:33:27;;;;;;;1.27;0.60;;;13.30;73.50;;;;;;5064799;28;20028;-63
2023/01/07 10:35:56;;;;;;;0.20;0.20;;;13.30;73.30;;;;;;5089752;28;20036;-63
2023/01/07 10:38:22;;;;;;;0.52;0.30;;;13.30;73.30;;;;;;5082986;28;20115;-59
2023/01/07 10:40:55;;;;;;;0.30;0.30;;;13.40;73.40;;;;;;5085177;28;20085;-63
2023/01/07 10:43:26;;;;;;;0.32;0.30;;;13.40;73.00;;;;;;5081982;28;20020;-64
2023/01/07 10:46:17;;;;;;;0.43;0.40;;;13.40;73.00;;;;;;5093314;28;20497;-60
2023/01/07 10:49:04;;;;;;;0.40;0.40;;;13.50;73.00;;;;;;5081290;28;20032;-60
2023/01/07 10:51:54;;;;;;;0.55;0.40;;;13.50;72.80;;;;;;5091827;28;20016;-60
2023/01/07 10:54:38;;;;;;;0.63;0.50;;;13.60;72.60;;;;;;5081382;28;20060;-60
2023/01/07 10:57:15;;;;;;;0.28;0.28;;;13.90;72.20;;;;;;5092062;28;20024;-63
2023/01/07 10:59:47;;;;;;;0.57;0.40;;;14.50;70.90;;;;;;5100271;28;20493;-63
2023/01/07 11:02:17;;;;;;;1.33;0.75;;;15.30;69.00;;;;;;5093932;28;20016;-63
2023/01/07 11:04:43;;;;;;;0.75;0.70;;;16.10;67.60;;;;;;5071203;28;20509;-63
2023/01/07 11:07:27;;;;;;;0.73;0.60;;;16.70;65.10;;;;;;5097681;28;20012;-68
2023/01/07 11:09:53;;;;;;;1.75;1.00;;;17.30;62.50;;;;;;5101240;28;20051;-62
2023/01/07 11:12:46;;;;;;;1.15;0.57;;;17.60;61.30;;;;;;5102405;28;20071;-61
2023/01/07 11:15:18;;;;;;;0.40;0.38;;;18.10;59.90;;;;;;5082283;28;20474;-61
2023/01/07 11:17:58;;;;;;;0.52;0.40;;;18.70;59.30;;;;;;5094789;28;20089;-61
2023/01/07 11:20:44;;;;;;;1.02;0.30;;;20.00;58.10;;;;;;5090817;28;20110;-62
2023/01/07 11:23:39;;;;;;;0.75;0.30;;;21.10;53.80;;;;;;5096487;28;20475;-66
2023/01/07 11:26:24;;;;;;;0.40;0.40;;;21.60;52.70;;;;;;5071052;28;20032;-66
2023/01/07 11:28:55;;;;;;;1.08;0.77;;;22.00;50.60;;;;;;5097877;28;20024;-66
2023/01/07 11:31:42;;;;;;;0.55;0.40;;;22.00;50.50;;;;;;5083439;28;20031;-65
2023/01/07 11:34:24;;;;;;;0.60;0.40;;;21.60;50.40;;;;;;5093391;28;20043;-60
2023/01/07 11:36:50;;;;;;;0.50;0.50;;;21.30;50.90;;;;;;5082026;28;20036;-63
2023/01/07 11:39:23;;;;;;;0.63;0.45;;;21.00;50.50;;;;;;5091082;28;20031;-64
2023/01/07 11:41:53;;;;;;;0.30;0.30;;;20.40;50.90;;;;;;5097689;28;20032;-66
2023/01/07 11:44:19;;;;;;;0.57;0.40;;;20.40;51.30;;;;;;5092113;28;20556;-61
2023/01/07 11:46:44;;;;;;;0.30;0.30;;;20.20;51.90;;;;;;5091013;28;20107;-61
2023/01/07 11:49:22;;;;;;;0.52;0.52;;;20.30;51.80;;;;;;5091053;28;20028;-61
2023/01/07 11:51:48;;;;;;;0.38;0.28;;;20.20;51.50;;;;;;5091174;28;20025;-67
2023/01/07 11:54:25;;;;;;;0.73;0.40;;;19.80;51.70;;;;;;5073606;28;20028;-61
2023/01/07 11:56:52;;;;;;;0.32;0.32;;;19.40;52.40;;;;;;5091549;28;20051;-61
2023/01/07 11:59:18;;;;;;;0.40;0.30;;;19.20;52.20;;;;;;5093325;28;20436;-60
2023/01/07 12:01:45;;;;;;;0.55;0.55;;;19.00;52.10;;;;;;5102590;28;20067;-61
2023/01/07 12:04:22;;;;;;;0.30;0.30;;;18.90;52.20;;;;;;5091180;28;20501;-60
2023/01/07 12:06:52;;;;;;;0.40;0.40;;;18.90;52.10;;;;;;5077950;28;20565;-60
2023/01/07 12:09:25;;;;;;;0.77;0.43;;;19.30;51.30;;;;;;5092790;28;20467;-67
2023/01/07 12:11:53;;;;;;;0.40;0.40;;;19.40;50.00;;;;;;5092771;28;20062;-67
2023/01/07 12:14:32;;;;;;;0.30;0.30;;;19.60;50.10;;;;;;5089100;28;20442;-67
2023/01/07 12:17:17;;;;;;;0.75;0.40;;;20.00;48.40;;;;;;5078623;28;20044;-67
2023/01/07 12:20:08;;;;;;;0.50;0.45;;;20.30;48.60;;;;;;5089005;28;20481;-66
2023/01/07 12:22:42;;;;;;;0.35;0.30;;;21.10;47.00;;;;;;5083059;28;20046;-67
2023/01/07 12:25:31;;;;;;;1.17;0.50;;;21.50;46.20;;;;;;5087385;28;20024;-66
2023/01/07 12:28:11;;;;;;;0.50;0.50;;;21.60;46.30;;;;;;5093136;28;20016;-67
2023/01/07 12:30:53;;;;;;;0.50;0.50;;;21.80;45.10;;;;;;5085273;28;20089;-66
2023/01/07 12:34:04;;;;;;;0.55;0.40;;;21.70;45.60;;;;;;5078408;28;20434;-61
2023/01/07 12:36:46;;;;;;;0.40;0.40;;;22.00;45.50;;;;;;5069904;28;20032;-67
2023/01/07 12:39:27;;;;;;;0.30;0.30;;;22.30;44.10;;;;;;5097756;28;20447;-68
2023/01/07 12:42:21;;;;;;;0.95;0.70;;;22.60;44.90;;;;;;5094000;28;20490;-69
2023/01/07 12:44:53;;;;;;;0.70;0.70;;;23.50;43.10;;;;;;5083124;28;20028;-60
2023/01/07 12:47:45;;;;;;;1.25;0.93;;;23.80;42.00;;;;;;5088798;28;20465;-69
2023/01/07 12:50:13;;;;;;;0.68;0.40;;;23.60;41.30;;;;;;5073395;28;20112;-67
2023/01/07 12:52:48;;;;;;;0.50;0.50;;;23.20;42.00;;;;;;5101092;28;20032;-67
2023/01/07 12:55:23;;;;;;;0.57;0.47;;;22.50;42.80;;;;;;5079687;28;20264;-69
2023/01/07 12:58:02;;;;;;;0.50;0.50;;;21.80;43.70;;;;;;5087448;28;20042;-59
2023/01/07 13:00:35;;;;;;;0.30;0.30;;;21.00;44.90;;;;;;5098439;28;20036;-57
2023/01/07 13:03:19;;;;;;;0.45;0.43;;;20.30;46.50;;;;;;5089929;28;20024;-58
2023/01/07 13:06:06;;;;;;;0.85;0.52;;;19.80;47.30;;;;;;5084925;28;20051;-59
2023/01/07 13:09:15;;;;;;;1.67;1.02;;;19.50;48.30;;;;;;5100541;28;20027;-64